createdAt,value
2023-04-03T00:02:46.710Z,102974.69
2023-04-03T00:05:49.440Z,102967.13
2023-04-03T00:08:52.420Z,102973.75
2023-04-03T00:11:55.088Z,102967.69
2023-04-03T00:14:57.702Z,102978.28
2023-04-03T00:18:02.241Z,102974.78
2023-04-03T00:21:05.643Z,102979.56
2023-04-03T00:24:08.508Z,102982.97
2023-04-03T00:27:12.048Z,102978.47
2023-04-03T00:30:17.618Z,102983.72
2023-04-03T00:33:22.623Z,102978.31
2023-04-03T00:36:25.479Z,102985.13
2023-04-03T00:39:28.237Z,102987.91
2023-04-03T00:42:30.987Z,102993.03
2023-04-03T00:45:37.298Z,102998.38
2023-04-03T00:48:44.255Z,102987.38
2023-04-03T00:51:47.329Z,102990.19
2023-04-03T00:54:52.086Z,102982.28
2023-04-03T00:57:56.924Z,102994.41
2023-04-03T01:01:00.917Z,102991.78
2023-04-03T01:04:06.876Z,102990.63
2023-04-03T01:07:12.524Z,102993.22
2023-04-03T01:10:18.086Z,102989.00
2023-04-03T01:13:27.552Z,102989.75
2023-04-03T01:16:31.955Z,102988.00
2023-04-03T01:19:40.679Z,102984.78
2023-04-03T01:22:52.720Z,102992.72
2023-04-03T01:25:57.496Z,102995.09
2023-04-03T01:29:01.802Z,102994.28
2023-04-03T01:32:06.416Z,102989.75
2023-04-03T01:35:11.015Z,102992.38
2023-04-03T01:38:13.579Z,102993.38
2023-04-03T01:41:16.855Z,102988.63
2023-04-03T01:44:19.557Z,102993.50
2023-04-03T01:47:24.101Z,102992.63
2023-04-03T01:50:26.828Z,102989.75
2023-04-03T01:53:29.442Z,102992.25
2023-04-03T01:56:32.320Z,102990.53
2023-04-03T01:59:34.952Z,102988.78
2023-04-03T02:02:38.988Z,102993.31
2023-04-03T02:05:41.578Z,103001.06
2023-04-03T02:08:44.176Z,102997.56
2023-04-03T02:11:46.760Z,102998.72
2023-04-03T02:14:49.378Z,103002.19
2023-04-03T02:17:53.770Z,102996.97
2023-04-03T02:20:56.391Z,103003.53
2023-04-03T02:23:59.000Z,102995.84
2023-04-03T02:27:01.644Z,102998.38
2023-04-03T02:30:05.030Z,102997.50
2023-04-03T02:33:08.971Z,103004.34
2023-04-03T02:36:11.672Z,103011.16
2023-04-03T02:39:14.357Z,103010.34
2023-04-03T02:42:16.999Z,103006.72
2023-04-03T02:45:19.590Z,103000.06
2023-04-03T02:48:23.599Z,103005.84
2023-04-03T02:51:26.305Z,103010.34
2023-04-03T02:54:31.370Z,103016.38
2023-04-03T02:57:34.016Z,103010.56
2023-04-03T03:00:36.841Z,103011.59
2023-04-03T03:03:40.981Z,103010.63
2023-04-03T03:06:44.927Z,103017.91
2023-04-03T03:09:47.698Z,103015.06
2023-04-03T03:12:50.735Z,103014.41
2023-04-03T03:15:53.334Z,103009.34
2023-04-03T03:18:57.989Z,103020.31
2023-04-03T03:22:01.860Z,103018.16
2023-04-03T03:25:04.958Z,103007.69
2023-04-03T03:28:08.144Z,103011.03
2023-04-03T03:31:11.545Z,103010.38
2023-04-03T03:34:15.571Z,103009.25
2023-04-03T03:37:18.159Z,103013.34
2023-04-03T03:40:20.950Z,103015.03
2023-04-03T03:43:23.590Z,103010.69
2023-04-03T03:46:26.298Z,103008.34
2023-04-03T03:49:30.313Z,103010.81
2023-04-03T03:52:32.895Z,103010.59
2023-04-03T03:55:35.915Z,103012.94
2023-04-03T03:58:38.834Z,103018.81
2023-04-03T04:01:41.665Z,103021.81
2023-04-03T04:04:45.622Z,103019.44
2023-04-03T04:07:51.750Z,103009.69
2023-04-03T04:10:54.800Z,103016.78
2023-04-03T04:13:57.406Z,103009.84
2023-04-03T04:17:00.054Z,103016.34
2023-04-03T04:20:05.936Z,103020.97
2023-04-03T04:23:08.599Z,103025.25
2023-04-03T04:26:11.353Z,103021.69
2023-04-03T04:29:14.004Z,103021.47
2023-04-03T04:32:16.614Z,103019.66
2023-04-03T04:35:20.729Z,103026.00
2023-04-03T04:38:23.496Z,103032.06
2023-04-03T04:41:26.194Z,103034.78
2023-04-03T04:44:28.809Z,103035.78
2023-04-03T04:47:31.653Z,103034.28
2023-04-03T04:50:35.743Z,103044.53
2023-04-03T04:53:38.712Z,103046.59
2023-04-03T04:56:41.361Z,103054.28
2023-04-03T04:59:43.947Z,103052.94
2023-04-03T05:02:46.562Z,103051.69
2023-04-03T05:05:50.533Z,103055.59
2023-04-03T05:08:53.111Z,103057.09
2023-04-03T05:11:56.112Z,103058.44
2023-04-03T05:14:58.724Z,103062.13
2023-04-03T05:18:01.450Z,103061.44
2023-04-03T05:21:05.902Z,103071.06
2023-04-03T05:24:10.190Z,103072.75
2023-04-03T05:27:12.801Z,103063.13
2023-04-03T05:30:15.836Z,103072.75
2023-04-03T05:33:18.417Z,103073.28
2023-04-03T05:36:22.460Z,103071.91
2023-04-03T05:39:25.233Z,103083.75
2023-04-03T05:42:27.950Z,103093.22
2023-04-03T05:45:30.809Z,103094.09
2023-04-03T05:48:33.365Z,103094.03
2023-04-03T05:51:38.560Z,103092.31
2023-04-03T05:54:41.113Z,103089.97
2023-04-03T05:57:43.945Z,103099.59
2023-04-03T06:00:46.535Z,103095.56
2023-04-03T06:03:49.326Z,103096.75
2023-04-03T06:06:58.636Z,103100.25
2023-04-03T06:10:01.391Z,103091.75
2023-04-03T06:13:04.236Z,103092.88
2023-04-03T06:16:07.625Z,103095.72
2023-04-03T06:19:10.896Z,103102.19
2023-04-03T06:22:15.515Z,103100.19
2023-04-03T06:25:19.688Z,103096.44
2023-04-03T06:28:22.283Z,103096.56
2023-04-03T06:31:25.402Z,103106.69
2023-04-03T06:34:28.550Z,103107.97
2023-04-03T06:37:33.282Z,103106.59
2023-04-03T06:40:36.659Z,103117.97
2023-04-03T06:43:39.514Z,103113.91
2023-04-03T06:46:42.198Z,103125.91
2023-04-03T06:49:45.667Z,103118.31
2023-04-03T06:52:49.617Z,103120.97
2023-04-03T06:55:52.194Z,103121.44
2023-04-03T06:58:55.735Z,103128.88
2023-04-03T07:01:59.652Z,103126.38
2023-04-03T07:05:02.327Z,103137.16
2023-04-03T07:08:07.159Z,103129.84
2023-04-03T07:11:10.902Z,103137.00
2023-04-03T07:14:13.484Z,103133.91
2023-04-03T07:17:16.110Z,103133.91
2023-04-03T07:20:18.880Z,103136.16
2023-04-03T07:23:22.989Z,103143.81
2023-04-03T07:26:26.565Z,103140.13
2023-04-03T07:29:29.539Z,103144.59
2023-04-03T07:32:32.116Z,103138.88
2023-04-03T07:35:34.787Z,103142.53
2023-04-03T07:38:39.326Z,103132.44
2023-04-03T07:41:42.093Z,103141.38
2023-04-03T07:44:44.750Z,103142.78
2023-04-03T07:47:47.538Z,103136.84
2023-04-03T07:50:51.412Z,103137.59
2023-04-03T07:53:55.648Z,103145.13
2023-04-03T07:56:58.610Z,103135.66
2023-04-03T08:00:01.227Z,103134.13
2023-04-03T08:03:03.976Z,103138.63
2023-04-03T08:06:11.876Z,103133.47
2023-04-03T08:09:19.616Z,103133.66
2023-04-03T08:12:22.199Z,103137.50
2023-04-03T08:15:25.037Z,103136.63
2023-04-03T08:18:28.488Z,103145.56
2023-04-03T08:21:31.328Z,103143.59
2023-04-03T08:24:36.492Z,103133.66
2023-04-03T08:27:40.443Z,103140.03
2023-04-03T08:30:44.688Z,103137.38
2023-04-03T08:33:47.433Z,103128.66
2023-04-03T08:36:50.276Z,103131.34
2023-04-03T08:39:54.354Z,103130.53
2023-04-03T08:43:21.112Z,103142.09
2023-04-03T08:46:28.367Z,103128.19
2023-04-03T08:49:34.952Z,103125.69
2023-04-03T08:52:42.776Z,103124.00
2023-04-03T08:55:48.527Z,103129.28
2023-04-03T08:58:55.827Z,103123.16
2023-04-03T09:02:00.457Z,103128.47
2023-04-03T09:05:04.402Z,103125.84
2023-04-03T09:08:13.681Z,103128.50
2023-04-03T09:11:24.209Z,103126.72
2023-04-03T09:14:35.138Z,103127.59
2023-04-03T09:17:44.426Z,103118.75
2023-04-03T09:20:55.871Z,103116.97
2023-04-03T09:24:01.497Z,103109.03
2023-04-03T09:27:08.955Z,103113.44
2023-04-03T09:30:17.040Z,103121.41
2023-04-03T09:33:19.907Z,103109.88
2023-04-03T09:36:43.252Z,103117.78
2023-04-03T09:39:56.983Z,103117.75
2023-04-03T09:43:02.934Z,103110.75
2023-04-03T09:46:25.168Z,103103.72
2023-04-03T09:49:27.992Z,103110.78
2023-04-03T09:52:32.383Z,103107.84
2023-04-03T09:55:43.824Z,103092.66
2023-04-03T09:58:51.290Z,103097.06
2023-04-03T10:02:02.057Z,103086.97
2023-04-03T10:05:09.932Z,103090.22
2023-04-03T10:08:24.823Z,103084.25
2023-04-03T10:11:27.767Z,103081.91
2023-04-03T10:14:31.986Z,103076.91
2023-04-03T10:17:47.271Z,103068.28
2023-04-03T10:20:53.249Z,103077.63
2023-04-03T10:24:08.037Z,103084.22
2023-04-03T10:27:14.869Z,103080.22
2023-04-03T10:30:38.552Z,103076.81
2023-04-03T10:33:57.884Z,103066.47
2023-04-03T10:37:08.223Z,103062.34
2023-04-03T10:40:21.425Z,103070.78
2023-04-03T10:43:33.933Z,103064.13
2023-04-03T10:46:40.515Z,103069.41
2023-04-03T10:49:59.427Z,103062.50
2023-04-03T10:53:10.092Z,103062.00
2023-04-03T10:56:17.815Z,103061.31
2023-04-03T10:59:30.226Z,103055.09
2023-04-03T11:02:39.496Z,103042.09
2023-04-03T11:05:46.385Z,103042.97
2023-04-03T11:08:57.604Z,103037.03
2023-04-03T11:12:06.664Z,103035.25
2023-04-03T11:15:15.867Z,103024.06
2023-04-03T11:18:24.838Z,103035.03
2023-04-03T11:21:32.096Z,103029.78
2023-04-03T11:24:36.012Z,103032.56
2023-04-03T11:27:44.620Z,103023.00
2023-04-03T11:30:52.403Z,103017.88
2023-04-03T11:34:09.761Z,103014.34
2023-04-03T11:37:23.927Z,103015.34
2023-04-03T11:40:30.982Z,103023.34
2023-04-03T11:43:35.381Z,103015.44
2023-04-03T11:46:57.626Z,103016.31
2023-04-03T11:50:03.745Z,103013.66
2023-04-03T11:53:37.004Z,103011.88
2023-04-03T11:56:39.631Z,102996.81
2023-04-03T11:59:42.927Z,102991.84
2023-04-03T12:02:53.686Z,102984.31
2023-04-03T12:06:19.387Z,102983.44
2023-04-03T12:09:27.935Z,102986.88
2023-04-03T12:12:39.666Z,102998.22
2023-04-03T12:15:58.030Z,102984.31
2023-04-03T12:19:04.233Z,102981.72
2023-04-03T12:22:17.885Z,102979.81
2023-04-03T12:25:50.684Z,102978.03
2023-04-03T12:28:54.749Z,102989.16
2023-04-03T12:32:11.562Z,102974.75
2023-04-03T12:35:23.674Z,102975.75
2023-04-03T12:39:04.253Z,102974.66
2023-04-03T12:42:25.642Z,102967.34
2023-04-03T12:45:30.070Z,102960.94
2023-04-03T12:48:35.713Z,102953.66
2023-04-03T12:51:41.502Z,102953.88
2023-04-03T12:54:48.501Z,102958.63
2023-04-03T12:57:51.259Z,102951.75
2023-04-03T13:01:05.549Z,102954.59
2023-04-03T13:04:08.736Z,102958.38
2023-04-03T13:07:22.038Z,102956.47
2023-04-03T13:10:26.050Z,102950.00
2023-04-03T13:13:28.891Z,102951.69
2023-04-03T13:16:32.650Z,102957.38
2023-04-03T13:19:35.367Z,102945.19
2023-04-03T13:22:44.420Z,102949.81
2023-04-03T13:25:50.443Z,102948.88
2023-04-03T13:28:53.930Z,102946.69
2023-04-03T13:31:58.796Z,102938.31
2023-04-03T13:35:15.456Z,102938.09
2023-04-03T13:38:27.024Z,102939.25
2023-04-03T13:41:34.353Z,102935.22
2023-04-03T13:44:40.401Z,102929.78
2023-04-03T13:47:44.984Z,102933.66
2023-04-03T13:51:18.767Z,102941.63
2023-04-03T13:54:23.990Z,102933.56
2023-04-03T13:57:28.265Z,102923.50
2023-04-03T14:00:40.248Z,102919.25
2023-04-03T14:03:47.909Z,102909.63
2023-04-03T14:06:52.402Z,102913.53
2023-04-03T14:09:56.054Z,102914.44
2023-04-03T14:13:00.111Z,102910.69
2023-04-03T14:16:15.102Z,102910.06
2023-04-03T14:19:25.398Z,102913.81
2023-04-03T14:22:30.295Z,102916.94
2023-04-03T14:25:32.941Z,102900.22
2023-04-03T14:28:37.339Z,102914.16
2023-04-03T14:31:40.301Z,102902.91
2023-04-03T14:34:44.019Z,102902.25
2023-04-03T14:37:47.732Z,102913.78
2023-04-03T14:40:50.530Z,102918.59
2023-04-03T14:43:55.826Z,102907.41
2023-04-03T14:46:58.518Z,102899.59
2023-04-03T14:50:02.270Z,102909.75
2023-04-03T14:53:05.716Z,102910.69
2023-04-03T14:56:14.103Z,102897.63
2023-04-03T14:59:20.863Z,102909.84
2023-04-03T15:02:29.134Z,102899.44
2023-04-03T15:05:32.016Z,102900.13
2023-04-03T15:08:34.717Z,102903.63
2023-04-03T15:11:37.312Z,102893.25
2023-04-03T15:14:52.000Z,102899.22
2023-04-03T15:17:58.740Z,102892.59
2023-04-03T15:21:01.801Z,102896.97
2023-04-03T15:24:04.690Z,102908.41
2023-04-03T15:27:07.392Z,102906.81
2023-04-03T15:30:16.566Z,102898.00
2023-04-03T15:33:19.317Z,102894.47
2023-04-03T15:36:33.221Z,102893.63
2023-04-03T15:39:37.355Z,102889.16
2023-04-03T15:42:40.446Z,102890.06
2023-04-03T15:45:46.004Z,102883.88
2023-04-03T15:48:50.449Z,102888.28
2023-04-03T15:51:53.025Z,102880.25
2023-04-03T15:54:55.621Z,102883.88
2023-04-03T15:57:58.799Z,102882.16
2023-04-03T16:01:03.359Z,102884.78
2023-04-03T16:04:07.017Z,102883.00
2023-04-03T16:07:09.801Z,102881.25
2023-04-03T16:10:14.625Z,102885.66
2023-04-03T16:13:17.300Z,102882.16
2023-04-03T16:16:21.418Z,102876.88
2023-04-03T16:19:25.309Z,102886.56
2023-04-03T16:22:30.661Z,102890.06
2023-04-03T16:25:33.554Z,102885.59
2023-04-03T16:28:36.220Z,102885.63
2023-04-03T16:31:40.470Z,102880.38
2023-04-03T16:34:43.259Z,102875.84
2023-04-03T16:37:46.463Z,102880.25
2023-04-03T16:40:49.369Z,102879.28
2023-04-03T16:43:52.073Z,102879.41
2023-04-03T16:46:56.196Z,102878.53
2023-04-03T16:49:58.983Z,102878.47
2023-04-03T16:53:03.780Z,102885.50
2023-04-03T16:56:06.771Z,102879.38
2023-04-03T16:59:09.379Z,102884.66
2023-04-03T17:02:13.489Z,102870.53
2023-04-03T17:05:16.212Z,102882.69
2023-04-03T17:08:19.827Z,102885.34
2023-04-03T17:11:22.553Z,102893.16
2023-04-03T17:14:25.222Z,102888.69
2023-04-03T17:17:29.269Z,102894.03
2023-04-03T17:20:34.567Z,102888.84
2023-04-03T17:23:38.347Z,102886.19
2023-04-03T17:26:41.918Z,102893.13
2023-04-03T17:29:44.493Z,102893.03
2023-04-03T17:32:48.462Z,102896.44
2023-04-03T17:35:51.110Z,102896.31
2023-04-03T17:38:53.725Z,102892.97
2023-04-03T17:41:56.514Z,102902.41
2023-04-03T17:45:00.892Z,102903.31
2023-04-03T17:48:05.777Z,102903.38
2023-04-03T17:51:09.574Z,102905.78
2023-04-03T17:54:12.423Z,102905.94
2023-04-03T17:57:15.007Z,102905.88
2023-04-03T18:00:18.916Z,102902.34
2023-04-03T18:03:22.888Z,102908.47
2023-04-03T18:06:29.580Z,102912.09
2023-04-03T18:09:34.427Z,102911.88
2023-04-03T18:12:37.784Z,102909.81
2023-04-03T18:15:45.523Z,102903.78
2023-04-03T18:18:54.024Z,102905.41
2023-04-03T18:22:09.458Z,102913.22
2023-04-03T18:25:14.162Z,102911.22
2023-04-03T18:28:16.800Z,102906.03
2023-04-03T18:31:19.905Z,102920.03
2023-04-03T18:34:23.993Z,102912.94
2023-04-03T18:37:26.867Z,102911.13
2023-04-03T18:40:29.531Z,102917.22
2023-04-03T18:43:32.504Z,102917.94
2023-04-03T18:46:35.326Z,102912.53
2023-04-03T18:49:41.846Z,102913.38
2023-04-03T18:52:44.536Z,102915.84
2023-04-03T18:55:47.330Z,102917.47
2023-04-03T18:58:49.979Z,102924.38
2023-04-03T19:01:52.911Z,102920.78
2023-04-03T19:04:57.397Z,102921.50
2023-04-03T19:08:00.173Z,102924.28
2023-04-03T19:11:03.655Z,102928.47
2023-04-03T19:14:15.952Z,102930.25
2023-04-03T19:17:18.996Z,102926.56
2023-04-03T19:20:23.008Z,102928.31
2023-04-03T19:23:25.984Z,102928.13
2023-04-03T19:26:28.639Z,102924.53
2023-04-03T19:29:31.301Z,102919.13
2023-04-03T19:32:33.947Z,102919.91
2023-04-03T19:35:41.687Z,102914.47
2023-04-03T19:38:44.503Z,102917.16
2023-04-03T19:41:47.316Z,102916.09
2023-04-03T19:44:50.579Z,102915.03
2023-04-03T19:47:53.554Z,102905.38
2023-04-03T19:50:57.576Z,102907.81
2023-04-03T19:54:00.256Z,102906.81
2023-04-03T19:57:03.024Z,102898.16
2023-04-03T20:00:06.501Z,102902.34
2023-04-03T20:03:09.194Z,102893.66
2023-04-03T20:06:13.197Z,102885.88
2023-04-03T20:09:16.076Z,102880.34
2023-04-03T20:12:18.664Z,102873.31
2023-04-03T20:15:21.335Z,102880.06
2023-04-03T20:18:24.062Z,102876.47
2023-04-03T20:21:32.406Z,102875.34
2023-04-03T20:24:35.117Z,102872.88
2023-04-03T20:27:39.497Z,102871.97
2023-04-03T20:30:43.141Z,102865.63
2023-04-03T20:33:46.139Z,102868.03
2023-04-03T20:36:50.350Z,102864.63
2023-04-03T20:39:53.398Z,102860.28
2023-04-03T20:42:56.743Z,102864.34
2023-04-03T20:46:00.540Z,102861.38
2023-04-03T20:49:03.135Z,102852.41
2023-04-03T20:52:07.119Z,102862.16
2023-04-03T20:55:10.844Z,102859.50
2023-04-03T20:58:13.582Z,102857.66
2023-04-03T21:01:19.045Z,102859.53
2023-04-03T21:04:26.519Z,102853.91
2023-04-03T21:08:06.454Z,102855.97
2023-04-03T21:11:47.030Z,102859.63
2023-04-03T21:15:27.128Z,102858.09
2023-04-03T21:19:01.952Z,102855.66
2023-04-03T21:22:04.582Z,102857.00
2023-04-03T21:25:08.830Z,102855.22
2023-04-03T21:28:11.430Z,102850.28
2023-04-03T21:31:15.185Z,102846.38
2023-04-03T21:34:20.877Z,102848.47
2023-04-03T21:37:23.844Z,102855.34
2023-04-03T21:40:26.772Z,102855.16
2023-04-03T21:43:29.634Z,102851.41
2023-04-03T21:46:32.330Z,102856.81
2023-04-03T21:49:36.276Z,102848.72
2023-04-03T21:52:38.875Z,102861.97
2023-04-03T21:55:41.493Z,102866.25
2023-04-03T21:58:44.231Z,102858.44
2023-04-03T22:01:47.027Z,102859.75
2023-04-03T22:04:51.032Z,102858.31
2023-04-03T22:07:54.224Z,102860.31
2023-04-03T22:11:00.955Z,102855.22
2023-04-03T22:14:03.546Z,102854.81
2023-04-03T22:17:07.207Z,102852.97
2023-04-03T22:20:11.865Z,102850.16
2023-04-03T22:23:14.542Z,102846.94
2023-04-03T22:26:17.530Z,102848.59
2023-04-03T22:29:20.202Z,102850.41
2023-04-03T22:32:22.834Z,102840.41
2023-04-03T22:35:27.634Z,102842.72
2023-04-03T22:38:30.320Z,102846.94
2023-04-03T22:41:32.908Z,102841.69
2023-04-03T22:44:36.686Z,102840.97
2023-04-03T22:47:39.495Z,102837.03
2023-04-03T22:50:43.867Z,102834.69
2023-04-03T22:53:46.441Z,102834.44
2023-04-03T22:56:49.064Z,102840.66
2023-04-03T22:59:51.620Z,102837.16
2023-04-03T23:02:54.337Z,102837.09
2023-04-03T23:05:58.328Z,102832.66
2023-04-03T23:09:01.140Z,102837.50
2023-04-03T23:12:03.718Z,102834.84
2023-04-03T23:15:07.537Z,102834.66
2023-04-03T23:18:10.149Z,102835.88
2023-04-03T23:21:14.152Z,102837.50
2023-04-03T23:24:17.153Z,102835.59
2023-04-03T23:27:19.785Z,102842.50
2023-04-03T23:30:22.774Z,102841.53
2023-04-03T23:33:25.427Z,102839.91
2023-04-03T23:36:29.378Z,102844.34
2023-04-03T23:39:33.020Z,102845.06
2023-04-03T23:42:35.604Z,102849.34
2023-04-03T23:45:38.563Z,102848.13
2023-04-03T23:48:41.361Z,102850.81
2023-04-03T23:51:45.463Z,102850.41
2023-04-03T23:54:49.370Z,102844.13
2023-04-03T23:57:51.972Z,102846.94
